Terminal Aerodrome Forecast
Issued by NWS

Home | Current Version | Previous Version | Text Only | Print | Product List | Glossary On
Versions: 1 2 3 4 5 6 7 8 9 10 11 12 13 14 15 16 17 18 19 20 21 22 23 24
000
FTUS43 KPAH 042340
TAFCGI
TAF
KCGI 042340Z 0500/0524 11003KT P6SM FEW035 BKN250
     FM050600 00000KT 3SM BR SCT005 BKN250
     FM050900 00000KT 1/2SM FG VV002
     FM051300 00000KT 3SM BR SCT006
     FM051500 17004KT P6SM SCT035=

USA.gov is the U.S. government's official web portal to all federal, state and local government web resources and services.